METAR Data
IDs: Format: Raw Decoded Include TAF

Data at: 1937 UTC 15 Oct 2018

FNLU 151900Z 20008KT CAVOK 25/22 Q1012 NOSIG

TAF FNLU 151745Z 1518/1618 25010KT 9999 FEW020
  TEMPO 1518/1520 19005KT 9000 FEW018 BKN050
  BECMG 1522/1624 16008KT 8000 NSC


FNCA 151700Z 19012KT 9999 SCT015 27/23 Q1010

TAF FNCA 151100Z 1512/1524 22005KT 9000 FEW015 BKN030
  PROB40
  TEMPO 1513/1517 8000 -RADZ SCT020 BKN025
  BECMG 1518/1520 18008KT FEW020



TAF FNBG 151100Z 1512/1524 29010KT 9999 SCT020 BKN050
  TEMPO 1512/1516 23008KT FEW015


FNHU 151600Z 12007KT 9999 FEW014 BKN080 29/04 Q1020

TAF FNHU 151100Z 1512/1524 06005KT 9000 NSC
  BECMG 1503/1506 9999 SCT020


FNUE 151600Z VRB03KT 9999 SCT030 26/23 Q1015

TAF FNUE 151100Z 1512/1524 07005KT 9000 NSC
  BECMG 1513/1517 VRB03KT 9999 BKN020


FNGI 151500Z 16006KT CAVOK 34/01 Q1015

TAF FNGI 151100Z 1512/1524 17008KT 9000 NSC
  BECMG 1513/1517 15008KT CAVOK


FNUB 151500Z 16010KT CAVOK 30/06 Q1022

TAF FNUB 151100Z 1512/1524 09005KT 8000 BKN025
  TEMPO 1512/1516 FEW025


FNMO 151600Z 28014KT 9999 SCT011 23/18 Q1010

TAF FNMO 151100Z 1512/1524 VRB03KT 9999 SCT018
  TEMPO 1513/1517 27010KT CAVOK


FNUG 151600Z 30008KT 9999 TS SCT026 FEW029CB 27/21 Q1013
No TAF found for FNUG


TAF FNMA 151100Z 1512/1524 VRB03KT 9000 BKN030
  PROB40
  TEMPO 1512/1516 -RA SCT015 BKN020
  BECMG 1518/1520 18005KT FEW020


FNSA 151600Z 00000KT 9999 SCT027 29/20 Q1018

TAF FNSA 151100Z 1512/1524 18005KT 9999 SCT020 SCT050

FNSO 151600Z 29012KT 8000 SCT012 ///// Q////

TAF FNSO 151100Z 1512/1524 23010KT 9000 BKN025
  PROB40
  TEMPO 1502/1508 8000 -RA SCT015 BKN020
  BECMG 1508/1511 15008KT FEW025


No TAF found for FNBC
FNSU 151700Z 20007KT 9999 FEW013 25/// Q1014
No TAF found for FNSU


TAF FNDU 151100Z 1512/1524 18005KT 9000 SCT025
  PROB40
  TEMPO 1513/1517 12007KT TSRA SCT015 FEW020CB BKN025
  BECMG 1518/1520 VRB03KT



TAF FNME 151100Z 1512/1524 VRB03KT 9000 SCT020
  TEMPO 1512/1516 10010KT 9000 NSC


FNCT 151700Z 27006KT 9999 FEW020 BKN090 24/21 Q1013

TAF FNCT 151100Z 1512/1524 28010KT 9000 BKN020
  TEMPO 1513/1517 22008KT FEW015


FNKU 151600Z 00000KT 9999 FEW021 28/19 Q1018

TAF FNKU 151100Z 1512/1524 05005KT 8000 NSC
  BECMG 1513/1517 18005KT 9999 SCT020 BKN050